Tamarac, Florida
Current Conditions -  °F | °C
As of 7:53 AM on Saturday 25 Oct 2014 (Local Time) from KFXE Reporting Station
Clear Clear  
Wind Chill: 68°   Ceiling: Unl
Heat Index: 68°   Visibility: 10mi
Dew Point: 61°   Wind: 6mph
Humidity: 78%   Direction: 330°NNW
Pressure: 29.9"   Gusts: NA
Location:  26.21°N, 80.27°W
Report Text: KFXE 251153Z 33005KT 10SM CLR 20/16 A2990 RMK AO2 SLP128 T02000161 10217 20194 53015
Loading
Personal Weather Stations






























Interactive Weather Map
Tropical Storm Tracking
New forecast layout! Learn more

10-Day Weather Forecast

Advertisements
Track Severe Weather on mobile